Time,TemperatureF,DewpointF,PressureIn,WindDirection,WindDirectionDegrees,WindSpeedMPH,WindSpeedGustMPH,Humidity,HourlyPrecipIn,Conditions,Clouds,dailyrainin,SoftwareType,DateUTC
2013-07-14 00:12:00,68.9,63.0,29.98,East,91,0.0,0.0,82,0.00,,,0.00,weatherlink.com 1.10,2013-07-14 05:12:00,
2013-07-14 00:27:00,68.6,63.0,29.98,East,92,0.0,0.0,82,0.00,,,0.00,weatherlink.com 1.10,2013-07-14 05:27:00,
2013-07-14 00:42:00,68.4,63.0,29.97,East,92,0.0,0.0,83,0.00,,,0.00,weatherlink.com 1.10,2013-07-14 05:42:00,
2013-07-14 00:57:00,68.2,63.0,29.97,East,92,0.0,0.0,84,0.00,,,0.00,weatherlink.com 1.10,2013-07-14 05:57:00,
2013-07-14 01:12:00,67.9,63.0,29.96,East,91,0.0,0.0,85,0.00,,,0.00,weatherlink.com 1.10,2013-07-14 06:12:00,
2013-07-14 01:27:00,67.5,63.0,29.96,East,92,0.0,0.0,86,0.00,,,0.00,weatherlink.com 1.10,2013-07-14 06:27:00,
2013-07-14 01:42:00,67.4,64.0,29.96,East,92,0.0,0.0,87,0.00,,,0.00,weatherlink.com 1.10,2013-07-14 06:42:00,
2013-07-14 01:57:00,67.5,64.0,29.97,East,91,0.0,0.0,87,0.00,,,0.00,weatherlink.com 1.10,2013-07-14 06:57:00,
2013-07-14 02:12:00,68.0,64.0,29.97,East,92,0.0,0.0,87,0.00,,,0.00,weatherlink.com 1.10,2013-07-14 07:12:00,
2013-07-14 02:27:00,68.3,64.0,29.96,East,92,0.0,1.0,86,0.00,,,0.00,weatherlink.com 1.10,2013-07-14 07:27:00,
2013-07-14 02:42:00,68.4,64.0,29.96,East,91,0.0,0.0,86,0.00,,,0.00,weatherlink.com 1.10,2013-07-14 07:42:00,
2013-07-14 02:57:00,68.3,64.0,29.96,East,88,0.0,0.0,86,0.00,,,0.00,weatherlink.com 1.10,2013-07-14 07:57:00,
2013-07-14 03:12:00,68.0,64.0,29.96,East,87,0.0,0.0,87,0.00,,,0.00,weatherlink.com 1.10,2013-07-14 08:12:00,
2013-07-14 03:27:00,67.8,64.0,29.96,East,88,0.0,0.0,88,0.00,,,0.00,weatherlink.com 1.10,2013-07-14 08:27:00,
2013-07-14 03:42:00,67.8,65.0,29.96,East,87,0.0,0.0,89,0.00,,,0.00,weatherlink.com 1.10,2013-07-14 08:42:00,
2013-07-14 03:57:00,67.6,64.0,29.95,East,88,0.0,0.0,89,0.00,,,0.00,weatherlink.com 1.10,2013-07-14 08:57:00,
2013-07-14 04:12:00,67.5,65.0,29.96,East,87,0.0,0.0,90,0.00,,,0.00,weatherlink.com 1.10,2013-07-14 09:12:00,
2013-07-14 04:27:00,67.5,65.0,29.96,East,88,0.0,0.0,90,0.00,,,0.00,weatherlink.com 1.10,2013-07-14 09:27:00,
2013-07-14 04:42:00,67.5,65.0,29.98,East,88,0.0,0.0,91,0.00,,,0.00,weatherlink.com 1.10,2013-07-14 09:42:00,
2013-07-14 04:57:00,68.0,65.0,29.99,North,9,1.0,2.0,90,0.00,,,0.00,weatherlink.com 1.10,2013-07-14 09:57:00,
2013-07-14 05:12:00,68.1,65.0,29.99,WNW,286,0.0,1.0,89,0.00,,,0.00,weatherlink.com 1.10,2013-07-14 10:12:00,
2013-07-14 05:27:00,68.3,65.0,29.99,WNW,287,0.0,1.0,89,0.00,,,0.00,weatherlink.com 1.10,2013-07-14 10:27:00,
2013-07-14 05:42:00,68.6,65.0,30.00,NNW,331,0.0,1.0,89,0.00,,,0.00,weatherlink.com 1.10,2013-07-14 10:42:00,
2013-07-14 05:57:00,69.2,66.0,30.00,WNW,301,0.0,1.0,88,0.00,,,0.00,weatherlink.com 1.10,2013-07-14 10:57:00,
2013-07-14 06:12:00,69.5,66.0,30.01,WNW,300,0.0,1.0,88,0.00,,,0.00,weatherlink.com 1.10,2013-07-14 11:12:00,
2013-07-14 06:27:00,69.4,66.0,30.01,NW,323,0.0,0.0,88,0.00,,,0.00,weatherlink.com 1.10,2013-07-14 11:27:00,
2013-07-14 06:42:00,69.4,66.0,30.01,NW,308,0.0,1.0,88,0.00,,,0.00,weatherlink.com 1.10,2013-07-14 11:42:00,
2013-07-14 06:57:00,69.7,66.0,30.01,NW,308,0.0,0.0,89,0.00,,,0.00,weatherlink.com 1.10,2013-07-14 11:57:00,
2013-07-14 07:12:00,70.3,67.0,30.01,NW,309,0.0,1.0,89,0.00,,,0.00,weatherlink.com 1.10,2013-07-14 12:12:00,
2013-07-14 07:27:00,71.1,68.0,30.01,NNE,24,0.0,1.0,89,0.00,,,0.00,weatherlink.com 1.10,2013-07-14 12:27:00,
2013-07-14 07:43:00,72.0,68.0,30.02,WNW,295,0.0,2.0,88,0.00,,,0.00,weatherlink.com 1.10,2013-07-14 12:43:00,
2013-07-14 07:58:00,72.8,69.0,30.02,West,269,0.0,1.0,87,0.00,,,0.00,weatherlink.com 1.10,2013-07-14 12:58:00,
2013-07-14 08:13:00,73.6,70.0,30.03,NW,319,0.0,1.0,87,0.00,,,0.00,weatherlink.com 1.10,2013-07-14 13:13:00,
2013-07-14 08:28:00,74.5,70.0,30.04,NW,308,0.0,2.0,85,0.00,,,0.00,weatherlink.com 1.10,2013-07-14 13:28:00,
2013-07-14 08:43:00,75.3,70.0,30.04,WSW,256,0.0,1.0,82,0.00,,,0.00,weatherlink.com 1.10,2013-07-14 13:43:00,
2013-07-14 08:58:00,76.4,70.0,30.04,West,277,0.0,2.0,80,0.00,,,0.00,weatherlink.com 1.10,2013-07-14 13:58:00,
2013-07-14 09:13:00,77.0,70.0,30.04,North,355,1.0,3.0,80,0.00,,,0.00,weatherlink.com 1.10,2013-07-14 14:13:00,
2013-07-14 09:28:00,77.9,71.0,30.05,North,356,0.0,2.0,78,0.00,,,0.00,weatherlink.com 1.10,2013-07-14 14:28:00,
2013-07-14 09:43:00,78.6,70.0,30.05,West,259,0.0,2.0,75,0.00,,,0.00,weatherlink.com 1.10,2013-07-14 14:43:00,
2013-07-14 09:58:00,79.9,71.0,30.05,WSW,255,2.0,2.0,74,0.00,,,0.00,weatherlink.com 1.10,2013-07-14 14:58:00,
2013-07-14 10:13:00,80.9,72.0,30.05,North,359,3.0,3.0,73,0.00,,,0.00,weatherlink.com 1.10,2013-07-14 15:13:00,
2013-07-14 10:28:00,82.5,71.0,30.05,WSW,252,0.0,5.0,69,0.00,,,0.00,weatherlink.com 1.10,2013-07-14 15:28:00,
2013-07-14 10:43:00,83.6,72.0,30.05,ENE,66,0.0,1.0,68,0.00,,,0.00,weatherlink.com 1.10,2013-07-14 15:43:00,
2013-07-14 10:59:00,83.7,72.0,30.05,SSW,192,0.0,1.0,67,0.00,,,0.00,weatherlink.com 1.10,2013-07-14 15:59:00,
2013-07-14 11:13:00,84.7,72.0,30.05,NW,323,0.0,2.0,66,0.00,,,0.00,weatherlink.com 1.10,2013-07-14 16:13:00,
2013-07-14 11:28:00,86.8,73.0,30.05,WNW,303,1.0,1.0,63,0.00,,,0.00,weatherlink.com 1.10,2013-07-14 16:28:00,
2013-07-14 11:43:00,86.8,73.0,30.05,ENE,64,0.0,6.0,64,0.00,,,0.00,weatherlink.com 1.10,2013-07-14 16:43:00,
2013-07-14 11:58:00,86.9,72.0,30.05,North,349,1.0,3.0,62,0.00,,,0.00,weatherlink.com 1.10,2013-07-14 16:58:00,
2013-07-14 12:13:00,87.0,74.0,30.05,NNE,18,2.0,2.0,65,0.00,,,0.00,weatherlink.com 1.10,2013-07-14 17:13:00,
2013-07-14 12:29:00,87.9,72.0,30.05,NNW,347,0.0,2.0,59,0.00,,,0.00,weatherlink.com 1.10,2013-07-14 17:29:00,
2013-07-14 12:44:00,87.8,72.0,30.04,SE,142,1.0,3.0,59,0.00,,,0.00,weatherlink.com 1.10,2013-07-14 17:44:00,
2013-07-14 12:59:00,90.0,74.0,30.04,WSW,241,0.0,1.0,59,0.00,,,0.00,weatherlink.com 1.10,2013-07-14 17:59:00,
2013-07-14 13:14:00,88.4,72.0,30.04,South,187,0.0,2.0,59,0.00,,,0.00,weatherlink.com 1.10,2013-07-14 18:14:00,
2013-07-14 13:29:00,88.4,73.0,30.03,North,352,0.0,2.0,61,0.00,,,0.00,weatherlink.com 1.10,2013-07-14 18:29:00,
2013-07-14 13:44:00,90.5,73.0,30.02,NNE,13,0.0,2.0,56,0.00,,,0.00,weatherlink.com 1.10,2013-07-14 18:44:00,
2013-07-14 13:59:00,88.8,74.0,30.02,ENE,68,0.0,3.0,61,0.00,,,0.00,weatherlink.com 1.10,2013-07-14 18:59:00,
2013-07-14 14:14:00,89.0,73.0,30.02,WSW,256,0.0,2.0,60,0.00,,,0.00,weatherlink.com 1.10,2013-07-14 19:14:00,
2013-07-14 14:29:00,88.3,72.0,30.01,SSE,153,0.0,2.0,59,0.00,,,0.00,weatherlink.com 1.10,2013-07-14 19:29:00,
2013-07-14 14:44:00,88.0,72.0,30.01,WSW,252,3.0,3.0,60,0.00,,,0.00,weatherlink.com 1.10,2013-07-14 19:44:00,
2013-07-14 14:59:00,89.1,73.0,30.00,West,263,0.0,3.0,59,0.00,,,0.00,weatherlink.com 1.10,2013-07-14 19:59:00,
2013-07-14 15:14:00,88.5,73.0,30.00,South,169,0.0,5.0,61,0.00,,,0.00,weatherlink.com 1.10,2013-07-14 20:14:00,
2013-07-14 15:29:00,89.3,73.0,30.00,North,352,4.0,7.0,58,0.00,,,0.00,weatherlink.com 1.10,2013-07-14 20:29:00,
2013-07-14 15:44:00,89.4,73.0,30.00,NW,322,1.0,5.0,58,0.00,,,0.00,weatherlink.com 1.10,2013-07-14 20:44:00,
2013-07-14 16:00:00,89.0,73.0,30.00,NNE,25,0.0,4.0,59,0.00,,,0.00,weatherlink.com 1.10,2013-07-14 21:00:00,
2013-07-14 16:14:00,89.9,74.0,30.00,North,8,2.0,7.0,59,0.00,,,0.00,weatherlink.com 1.10,2013-07-14 21:14:00,
2013-07-14 16:29:00,90.6,73.0,30.00,East,93,2.0,6.0,57,0.00,,,0.00,weatherlink.com 1.10,2013-07-14 21:29:00,
2013-07-14 16:44:00,89.5,74.0,30.00,West,260,0.0,8.0,61,0.00,,,0.00,weatherlink.com 1.10,2013-07-14 21:44:00,
2013-07-14 16:59:00,90.2,74.0,30.00,WSW,241,0.0,4.0,59,0.00,,,0.00,weatherlink.com 1.10,2013-07-14 21:59:00,
2013-07-14 17:14:00,88.3,72.0,30.00,WSW,246,3.0,3.0,58,0.00,,,0.00,weatherlink.com 1.10,2013-07-14 22:14:00,
2013-07-14 17:29:00,85.7,72.0,30.01,NW,305,0.0,4.0,63,0.00,,,0.00,weatherlink.com 1.10,2013-07-14 22:29:00,
2013-07-14 17:44:00,82.9,71.0,30.01,SSE,165,2.0,13.0,68,0.00,,,0.00,weatherlink.com 1.10,2013-07-14 22:44:00,
2013-07-14 17:59:00,80.7,71.0,30.01,East,84,1.0,8.0,71,0.00,,,0.00,weatherlink.com 1.10,2013-07-14 22:59:00,
2013-07-14 18:14:00,80.3,71.0,30.01,West,266,1.0,5.0,72,0.00,,,0.00,weatherlink.com 1.10,2013-07-14 23:14:00,
2013-07-14 18:29:00,80.0,70.0,30.01,NE,56,2.0,5.0,72,0.00,,,0.00,weatherlink.com 1.10,2013-07-14 23:29:00,
2013-07-14 18:44:00,79.8,70.0,30.02,North,352,2.0,5.0,73,0.00,,,0.00,weatherlink.com 1.10,2013-07-14 23:44:00,
2013-07-14 18:59:00,79.6,71.0,30.02,SW,236,0.0,3.0,74,0.00,,,0.00,weatherlink.com 1.10,2013-07-14 23:59:00,
2013-07-14 19:14:00,80.1,71.0,30.02,East,97,1.0,2.0,74,0.00,,,0.00,weatherlink.com 1.10,2013-07-15 00:14:00,
2013-07-14 19:29:00,82.3,72.0,30.02,West,267,0.0,3.0,71,0.00,,,0.00,weatherlink.com 1.10,2013-07-15 00:29:00,
2013-07-14 19:44:00,81.5,72.0,30.02,North,6,3.0,4.0,72,0.00,,,0.00,weatherlink.com 1.10,2013-07-15 00:44:00,
2013-07-14 19:59:00,79.7,72.0,30.02,WSW,244,0.0,1.0,76,0.00,,,0.00,weatherlink.com 1.10,2013-07-15 00:59:00,
2013-07-14 20:14:00,78.4,71.0,30.03,NW,304,0.0,3.0,78,0.00,,,0.00,weatherlink.com 1.10,2013-07-15 01:14:00,
2013-07-14 20:29:00,77.5,71.0,30.03,NNW,344,0.0,1.0,80,0.00,,,0.00,weatherlink.com 1.10,2013-07-15 01:29:00,
2013-07-14 20:44:00,76.7,71.0,30.04,North,359,0.0,0.0,82,0.00,,,0.00,weatherlink.com 1.10,2013-07-15 01:44:00,
2013-07-14 20:59:00,76.1,71.0,30.05,North,356,0.0,1.0,84,0.00,,,0.00,weatherlink.com 1.10,2013-07-15 01:59:00,
2013-07-14 21:14:00,75.7,71.0,30.05,North,356,0.0,1.0,85,0.00,,,0.00,weatherlink.com 1.10,2013-07-15 02:14:00,
2013-07-14 21:29:00,75.6,71.0,30.06,NNE,20,0.0,1.0,86,0.00,,,0.00,weatherlink.com 1.10,2013-07-15 02:29:00,
2013-07-14 21:44:00,75.6,72.0,30.06,NNW,340,1.0,2.0,87,0.00,,,0.00,weatherlink.com 1.10,2013-07-15 02:44:00,
2013-07-14 21:59:00,75.4,72.0,30.05,North,350,0.0,1.0,88,0.00,,,0.00,weatherlink.com 1.10,2013-07-15 02:59:00,
2013-07-14 22:14:00,75.1,72.0,30.05,North,1,0.0,2.0,89,0.00,,,0.00,weatherlink.com 1.10,2013-07-15 03:14:00,
2013-07-14 22:29:00,74.9,72.0,30.05,NNE,26,0.0,1.0,89,0.00,,,0.00,weatherlink.com 1.10,2013-07-15 03:29:00,
2013-07-14 22:44:00,74.5,72.0,30.06,NNE,15,0.0,0.0,90,0.00,,,0.00,weatherlink.com 1.10,2013-07-15 03:44:00,
2013-07-14 22:59:00,74.1,71.0,30.06,NNE,15,0.0,1.0,90,0.00,,,0.00,weatherlink.com 1.10,2013-07-15 03:59:00,
2013-07-14 23:14:00,73.7,71.0,30.06,NNE,14,0.0,0.0,91,0.00,,,0.00,weatherlink.com 1.10,2013-07-15 04:14:00,
2013-07-14 23:30:00,73.6,71.0,30.07,NNE,13,0.0,1.0,92,0.00,,,0.00,weatherlink.com 1.10,2013-07-15 04:30:00,
2013-07-14 23:44:00,73.4,71.0,30.06,NNE,14,0.0,0.0,92,0.00,,,0.00,weatherlink.com 1.10,2013-07-15 04:44:00,
2013-07-14 23:59:00,73.3,71.0,30.07,NNE,13,0.0,0.0,92,0.00,,,0.00,weatherlink.com 1.10,2013-07-15 04:59:00,